sensor_id;sensor_type;location;lat;lon;timestamp;P1;durP1;ratioP1;P2;durP2;ratioP2
73593;SDS011;64760;53.404;23.498;2023-05-14T00:01:13;22.13;;;12.32;;
73593;SDS011;64760;53.404;23.498;2023-05-14T00:03:39;21.25;;;12.43;;
73593;SDS011;64760;53.404;23.498;2023-05-14T00:06:06;19.85;;;11.60;;
73593;SDS011;64760;53.404;23.498;2023-05-14T00:08:33;21.67;;;11.77;;
73593;SDS011;64760;53.404;23.498;2023-05-14T00:10:59;20.13;;;11.35;;
73593;SDS011;64760;53.404;23.498;2023-05-14T00:13:25;18.83;;;11.88;;
73593;SDS011;64760;53.404;23.498;2023-05-14T00:15:51;19.98;;;11.75;;
73593;SDS011;64760;53.404;23.498;2023-05-14T00:18:18;26.95;;;13.45;;
73593;SDS011;64760;53.404;23.498;2023-05-14T00:20:44;25.67;;;13.88;;
73593;SDS011;64760;53.404;23.498;2023-05-14T00:23:10;24.05;;;14.13;;
73593;SDS011;64760;53.404;23.498;2023-05-14T00:25:36;29.75;;;14.07;;
73593;SDS011;64760;53.404;23.498;2023-05-14T00:28:03;22.85;;;13.40;;
73593;SDS011;64760;53.404;23.498;2023-05-14T00:30:29;19.95;;;11.35;;
73593;SDS011;64760;53.404;23.498;2023-05-14T00:32:56;21.77;;;11.23;;
73593;SDS011;64760;53.404;23.498;2023-05-14T00:35:22;18.00;;;11.48;;
73593;SDS011;64760;53.404;23.498;2023-05-14T00:37:49;17.77;;;11.07;;
73593;SDS011;64760;53.404;23.498;2023-05-14T00:40:15;19.73;;;12.13;;
73593;SDS011;64760;53.404;23.498;2023-05-14T00:42:41;21.75;;;12.68;;
73593;SDS011;64760;53.404;23.498;2023-05-14T00:45:08;22.13;;;13.40;;
73593;SDS011;64760;53.404;23.498;2023-05-14T00:47:35;26.95;;;13.75;;
73593;SDS011;64760;53.404;23.498;2023-05-14T00:50:03;30.38;;;15.10;;
73593;SDS011;64760;53.404;23.498;2023-05-14T00:52:31;25.92;;;13.18;;
73593;SDS011;64760;53.404;23.498;2023-05-14T00:54:57;22.88;;;12.63;;
73593;SDS011;64760;53.404;23.498;2023-05-14T00:57:24;21.83;;;12.88;;
73593;SDS011;64760;53.404;23.498;2023-05-14T00:59:50;24.63;;;12.98;;
73593;SDS011;64760;53.404;23.498;2023-05-14T01:02:17;23.52;;;12.68;;
73593;SDS011;64760;53.404;23.498;2023-05-14T01:04:43;23.10;;;13.40;;
73593;SDS011;64760;53.404;23.498;2023-05-14T01:07:15;22.17;;;12.82;;
73593;SDS011;64760;53.404;23.498;2023-05-14T01:09:55;18.98;;;11.60;;
73593;SDS011;64760;53.404;23.498;2023-05-14T01:12:33;19.58;;;11.35;;
73593;SDS011;64760;53.404;23.498;2023-05-14T01:17:40;23.33;;;12.43;;
73593;SDS011;64760;53.404;23.498;2023-05-14T01:20:10;19.23;;;12.93;;
73593;SDS011;64760;53.404;23.498;2023-05-14T01:22:37;24.35;;;14.32;;
73593;SDS011;64760;53.404;23.498;2023-05-14T01:25:04;23.23;;;12.48;;
73593;SDS011;64760;53.404;23.498;2023-05-14T01:30:23;21.80;;;13.35;;
73593;SDS011;64760;53.404;23.498;2023-05-14T01:32:55;19.42;;;11.27;;
73593;SDS011;64760;53.404;23.498;2023-05-14T01:35:26;25.10;;;12.80;;
73593;SDS011;64760;53.404;23.498;2023-05-14T01:38:03;20.48;;;11.43;;
73593;SDS011;64760;53.404;23.498;2023-05-14T01:40:34;24.95;;;12.48;;
73593;SDS011;64760;53.404;23.498;2023-05-14T01:43:02;20.20;;;11.75;;
73593;SDS011;64760;53.404;23.498;2023-05-14T01:45:29;23.15;;;13.05;;
73593;SDS011;64760;53.404;23.498;2023-05-14T01:47:56;20.70;;;13.35;;
73593;SDS011;64760;53.404;23.498;2023-05-14T01:52:49;14.77;;;10.27;;
73593;SDS011;64760;53.404;23.498;2023-05-14T01:55:18;19.30;;;9.95;;
73593;SDS011;64760;53.404;23.498;2023-05-14T01:57:44;19.77;;;11.15;;
73593;SDS011;64760;53.404;23.498;2023-05-14T02:00:10;16.40;;;11.48;;
73593;SDS011;64760;53.404;23.498;2023-05-14T02:02:40;17.38;;;9.90;;
73593;SDS011;64760;53.404;23.498;2023-05-14T02:05:09;15.05;;;9.90;;
73593;SDS011;64760;53.404;23.498;2023-05-14T02:07:36;18.52;;;10.43;;
73593;SDS011;64760;53.404;23.498;2023-05-14T02:10:02;18.08;;;10.55;;
73593;SDS011;64760;53.404;23.498;2023-05-14T02:12:29;16.80;;;9.52;;
73593;SDS011;64760;53.404;23.498;2023-05-14T02:14:55;18.88;;;9.52;;
73593;SDS011;64760;53.404;23.498;2023-05-14T02:17:23;14.20;;;9.25;;
73593;SDS011;64760;53.404;23.498;2023-05-14T02:19:50;13.25;;;9.18;;
73593;SDS011;64760;53.404;23.498;2023-05-14T02:22:17;16.85;;;10.82;;
73593;SDS011;64760;53.404;23.498;2023-05-14T02:24:43;15.52;;;9.75;;
73593;SDS011;64760;53.404;23.498;2023-05-14T02:27:10;15.10;;;10.32;;
73593;SDS011;64760;53.404;23.498;2023-05-14T02:29:37;15.38;;;10.18;;
73593;SDS011;64760;53.404;23.498;2023-05-14T02:32:04;17.42;;;9.82;;
73593;SDS011;64760;53.404;23.498;2023-05-14T02:34:30;17.08;;;9.90;;
73593;SDS011;64760;53.404;23.498;2023-05-14T02:36:59;19.73;;;11.57;;
73593;SDS011;64760;53.404;23.498;2023-05-14T02:39:25;20.48;;;10.70;;
73593;SDS011;64760;53.404;23.498;2023-05-14T02:41:52;17.90;;;11.25;;
73593;SDS011;64760;53.404;23.498;2023-05-14T02:44:18;22.23;;;11.40;;
73593;SDS011;64760;53.404;23.498;2023-05-14T02:46:44;23.98;;;12.60;;
73593;SDS011;64760;53.404;23.498;2023-05-14T02:49:10;24.30;;;12.48;;
73593;SDS011;64760;53.404;23.498;2023-05-14T02:51:36;23.38;;;12.32;;
73593;SDS011;64760;53.404;23.498;2023-05-14T02:54:02;24.63;;;11.88;;
73593;SDS011;64760;53.404;23.498;2023-05-14T02:56:29;20.50;;;12.02;;
73593;SDS011;64760;53.404;23.498;2023-05-14T02:58:55;21.27;;;10.95;;
73593;SDS011;64760;53.404;23.498;2023-05-14T03:01:21;21.13;;;10.77;;
73593;SDS011;64760;53.404;23.498;2023-05-14T03:03:47;20.83;;;11.57;;
73593;SDS011;64760;53.404;23.498;2023-05-14T03:06:14;18.08;;;11.30;;
73593;SDS011;64760;53.404;23.498;2023-05-14T03:08:40;23.05;;;12.23;;
73593;SDS011;64760;53.404;23.498;2023-05-14T03:11:06;21.17;;;12.25;;
73593;SDS011;64760;53.404;23.498;2023-05-14T03:13:32;19.45;;;12.00;;
73593;SDS011;64760;53.404;23.498;2023-05-14T03:15:59;34.20;;;17.92;;
73593;SDS011;64760;53.404;23.498;2023-05-14T03:18:25;33.47;;;15.65;;
73593;SDS011;64760;53.404;23.498;2023-05-14T03:20:53;25.95;;;14.52;;
73593;SDS011;64760;53.404;23.498;2023-05-14T03:23:20;25.52;;;12.90;;
73593;SDS011;64760;53.404;23.498;2023-05-14T03:25:47;22.88;;;12.82;;
73593;SDS011;64760;53.404;23.498;2023-05-14T03:28:13;25.63;;;13.15;;
73593;SDS011;64760;53.404;23.498;2023-05-14T03:30:39;28.08;;;13.77;;
73593;SDS011;64760;53.404;23.498;2023-05-14T03:33:05;25.42;;;14.25;;
73593;SDS011;64760;53.404;23.498;2023-05-14T03:35:32;21.25;;;13.85;;
73593;SDS011;64760;53.404;23.498;2023-05-14T03:37:58;21.00;;;13.45;;
73593;SDS011;64760;53.404;23.498;2023-05-14T03:40:24;20.77;;;12.18;;
73593;SDS011;64760;53.404;23.498;2023-05-14T03:42:51;20.73;;;12.15;;
73593;SDS011;64760;53.404;23.498;2023-05-14T03:45:17;17.63;;;12.02;;
73593;SDS011;64760;53.404;23.498;2023-05-14T03:47:43;21.27;;;12.40;;
73593;SDS011;64760;53.404;23.498;2023-05-14T03:50:11;20.02;;;10.75;;
73593;SDS011;64760;53.404;23.498;2023-05-14T03:52:38;17.35;;;11.07;;
73593;SDS011;64760;53.404;23.498;2023-05-14T03:55:05;17.98;;;11.07;;
73593;SDS011;64760;53.404;23.498;2023-05-14T03:57:31;24.67;;;12.60;;
73593;SDS011;64760;53.404;23.498;2023-05-14T03:59:58;21.90;;;13.00;;
73593;SDS011;64760;53.404;23.498;2023-05-14T04:02:24;18.88;;;12.43;;
73593;SDS011;64760;53.404;23.498;2023-05-14T04:04:50;25.00;;;13.52;;
73593;SDS011;64760;53.404;23.498;2023-05-14T04:07:19;20.58;;;12.88;;
73593;SDS011;64760;53.404;23.498;2023-05-14T04:09:46;20.33;;;12.93;;
73593;SDS011;64760;53.404;23.498;2023-05-14T04:12:12;18.27;;;11.63;;
73593;SDS011;64760;53.404;23.498;2023-05-14T04:14:38;14.20;;;9.73;;
73593;SDS011;64760;53.404;23.498;2023-05-14T04:17:04;15.60;;;9.93;;
73593;SDS011;64760;53.404;23.498;2023-05-14T04:19:31;18.67;;;11.27;;
73593;SDS011;64760;53.404;23.498;2023-05-14T04:21:57;15.43;;;10.10;;
73593;SDS011;64760;53.404;23.498;2023-05-14T04:24:23;18.60;;;10.77;;
73593;SDS011;64760;53.404;23.498;2023-05-14T04:26:49;18.50;;;11.90;;
73593;SDS011;64760;53.404;23.498;2023-05-14T04:29:16;20.55;;;11.52;;
73593;SDS011;64760;53.404;23.498;2023-05-14T04:31:43;17.77;;;11.02;;
73593;SDS011;64760;53.404;23.498;2023-05-14T04:36:35;17.60;;;9.90;;
73593;SDS011;64760;53.404;23.498;2023-05-14T04:39:02;19.27;;;10.27;;
73593;SDS011;64760;53.404;23.498;2023-05-14T04:41:28;22.63;;;10.93;;
73593;SDS011;64760;53.404;23.498;2023-05-14T04:43:55;19.10;;;11.32;;
73593;SDS011;64760;53.404;23.498;2023-05-14T04:46:21;18.40;;;11.65;;
73593;SDS011;64760;53.404;23.498;2023-05-14T04:48:47;17.33;;;11.88;;
73593;SDS011;64760;53.404;23.498;2023-05-14T04:51:13;18.02;;;12.13;;
73593;SDS011;64760;53.404;23.498;2023-05-14T04:53:40;18.90;;;12.80;;
73593;SDS011;64760;53.404;23.498;2023-05-14T04:56:06;18.40;;;11.75;;
73593;SDS011;64760;53.404;23.498;2023-05-14T04:58:32;19.48;;;11.60;;
73593;SDS011;64760;53.404;23.498;2023-05-14T05:00:58;18.13;;;11.55;;
73593;SDS011;64760;53.404;23.498;2023-05-14T05:03:25;19.33;;;13.05;;
73593;SDS011;64760;53.404;23.498;2023-05-14T05:05:51;16.45;;;11.13;;
73593;SDS011;64760;53.404;23.498;2023-05-14T05:08:18;23.77;;;13.10;;
73593;SDS011;64760;53.404;23.498;2023-05-14T05:10:45;18.15;;;11.48;;
73593;SDS011;64760;53.404;23.498;2023-05-14T05:13:11;16.48;;;10.75;;
73593;SDS011;64760;53.404;23.498;2023-05-14T05:15:37;17.58;;;10.82;;
73593;SDS011;64760;53.404;23.498;2023-05-14T05:18:04;14.75;;;10.23;;
73593;SDS011;64760;53.404;23.498;2023-05-14T05:20:30;15.38;;;10.27;;
73593;SDS011;64760;53.404;23.498;2023-05-14T05:22:57;20.30;;;11.52;;
73593;SDS011;64760;53.404;23.498;2023-05-14T05:25:24;15.98;;;9.05;;
73593;SDS011;64760;53.404;23.498;2023-05-14T05:27:50;12.50;;;7.57;;
73593;SDS011;64760;53.404;23.498;2023-05-14T05:30:16;12.38;;;7.60;;
73593;SDS011;64760;53.404;23.498;2023-05-14T05:32:43;10.70;;;7.45;;
73593;SDS011;64760;53.404;23.498;2023-05-14T05:35:09;13.13;;;7.55;;
73593;SDS011;64760;53.404;23.498;2023-05-14T05:37:35;10.73;;;6.53;;
73593;SDS011;64760;53.404;23.498;2023-05-14T05:40:02;11.98;;;7.15;;
73593;SDS011;64760;53.404;23.498;2023-05-14T05:42:29;11.50;;;6.80;;
73593;SDS011;64760;53.404;23.498;2023-05-14T05:44:55;10.60;;;6.78;;
73593;SDS011;64760;53.404;23.498;2023-05-14T05:47:21;13.10;;;7.22;;
73593;SDS011;64760;53.404;23.498;2023-05-14T05:49:48;10.82;;;6.95;;
73593;SDS011;64760;53.404;23.498;2023-05-14T05:52:14;12.90;;;7.32;;
73593;SDS011;64760;53.404;23.498;2023-05-14T05:54:40;12.55;;;6.60;;
73593;SDS011;64760;53.404;23.498;2023-05-14T05:57:07;12.10;;;6.50;;
73593;SDS011;64760;53.404;23.498;2023-05-14T05:59:33;10.27;;;6.93;;
73593;SDS011;64760;53.404;23.498;2023-05-14T06:01:59;11.73;;;7.78;;
73593;SDS011;64760;53.404;23.498;2023-05-14T06:04:25;11.30;;;6.75;;
73593;SDS011;64760;53.404;23.498;2023-05-14T06:06:52;10.10;;;6.22;;
73593;SDS011;64760;53.404;23.498;2023-05-14T06:09:18;9.45;;;6.18;;
73593;SDS011;64760;53.404;23.498;2023-05-14T06:11:44;9.20;;;6.13;;
73593;SDS011;64760;53.404;23.498;2023-05-14T06:14:10;11.23;;;6.50;;
73593;SDS011;64760;53.404;23.498;2023-05-14T06:16:37;7.53;;;5.60;;
73593;SDS011;64760;53.404;23.498;2023-05-14T06:19:03;10.50;;;5.80;;
73593;SDS011;64760;53.404;23.498;2023-05-14T06:21:29;10.77;;;5.72;;
73593;SDS011;64760;53.404;23.498;2023-05-14T06:23:55;8.25;;;5.20;;
73593;SDS011;64760;53.404;23.498;2023-05-14T06:26:22;9.27;;;5.38;;
73593;SDS011;64760;53.404;23.498;2023-05-14T06:28:48;7.55;;;5.07;;
73593;SDS011;64760;53.404;23.498;2023-05-14T06:31:14;8.02;;;4.60;;
73593;SDS011;64760;53.404;23.498;2023-05-14T06:33:40;7.70;;;4.68;;
73593;SDS011;64760;53.404;23.498;2023-05-14T06:36:07;10.38;;;5.20;;
73593;SDS011;64760;53.404;23.498;2023-05-14T06:38:33;9.95;;;5.05;;
73593;SDS011;64760;53.404;23.498;2023-05-14T06:40:59;10.57;;;5.15;;
73593;SDS011;64760;53.404;23.498;2023-05-14T06:43:25;7.65;;;4.20;;
73593;SDS011;64760;53.404;23.498;2023-05-14T06:45:52;9.65;;;4.50;;
73593;SDS011;64760;53.404;23.498;2023-05-14T06:48:18;8.20;;;4.93;;
73593;SDS011;64760;53.404;23.498;2023-05-14T06:50:46;12.35;;;5.18;;
73593;SDS011;64760;53.404;23.498;2023-05-14T06:53:13;8.77;;;4.80;;
73593;SDS011;64760;53.404;23.498;2023-05-14T06:55:39;8.73;;;5.00;;
73593;SDS011;64760;53.404;23.498;2023-05-14T06:58:06;7.03;;;5.00;;
73593;SDS011;64760;53.404;23.498;2023-05-14T07:00:33;10.40;;;5.18;;
73593;SDS011;64760;53.404;23.498;2023-05-14T07:02:59;8.88;;;5.18;;
73593;SDS011;64760;53.404;23.498;2023-05-14T07:05:25;9.20;;;4.13;;
73593;SDS011;64760;53.404;23.498;2023-05-14T07:07:51;7.63;;;4.93;;
73593;SDS011;64760;53.404;23.498;2023-05-14T07:10:18;6.45;;;4.43;;
73593;SDS011;64760;53.404;23.498;2023-05-14T07:12:44;7.10;;;4.47;;
73593;SDS011;64760;53.404;23.498;2023-05-14T07:15:10;8.80;;;4.13;;
73593;SDS011;64760;53.404;23.498;2023-05-14T07:17:36;8.18;;;4.20;;
73593;SDS011;64760;53.404;23.498;2023-05-14T07:20:03;6.95;;;3.90;;
73593;SDS011;64760;53.404;23.498;2023-05-14T07:22:29;7.40;;;3.78;;
73593;SDS011;64760;53.404;23.498;2023-05-14T07:24:56;6.68;;;4.13;;
73593;SDS011;64760;53.404;23.498;2023-05-14T07:27:22;5.05;;;3.83;;
73593;SDS011;64760;53.404;23.498;2023-05-14T07:29:49;5.45;;;3.38;;
73593;SDS011;64760;53.404;23.498;2023-05-14T07:32:15;5.35;;;3.60;;
73593;SDS011;64760;53.404;23.498;2023-05-14T07:34:41;6.40;;;3.63;;
73593;SDS011;64760;53.404;23.498;2023-05-14T07:37:07;6.60;;;4.13;;
73593;SDS011;64760;53.404;23.498;2023-05-14T07:39:34;7.13;;;3.80;;
73593;SDS011;64760;53.404;23.498;2023-05-14T07:42:00;8.50;;;3.70;;
73593;SDS011;64760;53.404;23.498;2023-05-14T07:44:27;5.32;;;3.75;;
73593;SDS011;64760;53.404;23.498;2023-05-14T07:46:53;5.38;;;3.38;;
73593;SDS011;64760;53.404;23.498;2023-05-14T07:49:19;6.00;;;3.65;;
73593;SDS011;64760;53.404;23.498;2023-05-14T07:51:45;7.40;;;3.67;;
73593;SDS011;64760;53.404;23.498;2023-05-14T07:54:12;6.97;;;3.20;;
73593;SDS011;64760;53.404;23.498;2023-05-14T07:56:38;6.45;;;3.92;;
73593;SDS011;64760;53.404;23.498;2023-05-14T07:59:04;8.15;;;3.97;;
73593;SDS011;64760;53.404;23.498;2023-05-14T08:01:31;5.65;;;3.47;;
73593;SDS011;64760;53.404;23.498;2023-05-14T08:03:58;5.97;;;3.85;;
73593;SDS011;64760;53.404;23.498;2023-05-14T08:06:24;7.47;;;3.67;;
73593;SDS011;64760;53.404;23.498;2023-05-14T08:08:52;7.22;;;3.83;;
73593;SDS011;64760;53.404;23.498;2023-05-14T08:11:18;6.18;;;3.10;;
73593;SDS011;64760;53.404;23.498;2023-05-14T08:13:47;6.57;;;3.40;;
73593;SDS011;64760;53.404;23.498;2023-05-14T08:16:13;6.78;;;4.15;;
73593;SDS011;64760;53.404;23.498;2023-05-14T08:18:39;5.57;;;3.60;;
73593;SDS011;64760;53.404;23.498;2023-05-14T08:21:05;6.15;;;3.65;;
73593;SDS011;64760;53.404;23.498;2023-05-14T08:23:32;7.20;;;3.67;;
73593;SDS011;64760;53.404;23.498;2023-05-14T08:25:58;5.60;;;3.30;;
73593;SDS011;64760;53.404;23.498;2023-05-14T08:28:24;6.13;;;3.42;;
73593;SDS011;64760;53.404;23.498;2023-05-14T08:30:51;4.97;;;3.05;;
73593;SDS011;64760;53.404;23.498;2023-05-14T08:33:17;4.90;;;3.33;;
73593;SDS011;64760;53.404;23.498;2023-05-14T08:35:43;5.43;;;3.50;;
73593;SDS011;64760;53.404;23.498;2023-05-14T08:38:09;6.43;;;2.88;;
73593;SDS011;64760;53.404;23.498;2023-05-14T08:40:35;7.97;;;4.03;;
73593;SDS011;64760;53.404;23.498;2023-05-14T08:43:02;5.53;;;3.25;;
73593;SDS011;64760;53.404;23.498;2023-05-14T08:45:30;6.13;;;3.50;;
73593;SDS011;64760;53.404;23.498;2023-05-14T08:47:59;4.10;;;3.00;;
73593;SDS011;64760;53.404;23.498;2023-05-14T08:50:27;5.35;;;3.28;;
73593;SDS011;64760;53.404;23.498;2023-05-14T08:52:54;4.97;;;3.85;;
73593;SDS011;64760;53.404;23.498;2023-05-14T08:55:20;5.20;;;3.42;;
73593;SDS011;64760;53.404;23.498;2023-05-14T08:57:47;6.82;;;3.80;;
73593;SDS011;64760;53.404;23.498;2023-05-14T09:00:13;7.13;;;3.13;;
73593;SDS011;64760;53.404;23.498;2023-05-14T09:02:40;6.72;;;3.75;;
73593;SDS011;64760;53.404;23.498;2023-05-14T09:05:09;5.35;;;2.97;;
73593;SDS011;64760;53.404;23.498;2023-05-14T09:07:35;8.40;;;3.25;;
73593;SDS011;64760;53.404;23.498;2023-05-14T09:10:02;7.18;;;3.22;;
73593;SDS011;64760;53.404;23.498;2023-05-14T09:12:29;4.70;;;3.15;;
73593;SDS011;64760;53.404;23.498;2023-05-14T09:14:56;7.30;;;3.40;;
73593;SDS011;64760;53.404;23.498;2023-05-14T09:17:23;7.30;;;3.40;;
73593;SDS011;64760;53.404;23.498;2023-05-14T09:19:50;7.43;;;3.20;;
73593;SDS011;64760;53.404;23.498;2023-05-14T09:22:18;5.25;;;2.80;;
73593;SDS011;64760;53.404;23.498;2023-05-14T09:24:45;5.13;;;2.72;;
73593;SDS011;64760;53.404;23.498;2023-05-14T09:27:29;4.97;;;2.95;;
73593;SDS011;64760;53.404;23.498;2023-05-14T09:30:03;4.63;;;2.85;;
73593;SDS011;64760;53.404;23.498;2023-05-14T09:32:39;6.53;;;3.15;;
73593;SDS011;64760;53.404;23.498;2023-05-14T09:35:12;5.97;;;2.92;;
73593;SDS011;64760;53.404;23.498;2023-05-14T09:37:45;5.20;;;3.40;;
73593;SDS011;64760;53.404;23.498;2023-05-14T09:40:12;5.05;;;3.28;;
73593;SDS011;64760;53.404;23.498;2023-05-14T09:45:06;6.28;;;3.88;;
73593;SDS011;64760;53.404;23.498;2023-05-14T09:47:34;5.00;;;3.13;;
73593;SDS011;64760;53.404;23.498;2023-05-14T09:50:01;8.93;;;3.90;;
73593;SDS011;64760;53.404;23.498;2023-05-14T09:54:54;4.82;;;3.65;;
73593;SDS011;64760;53.404;23.498;2023-05-14T09:57:21;8.93;;;3.75;;
73593;SDS011;64760;53.404;23.498;2023-05-14T09:59:47;6.25;;;3.70;;
73593;SDS011;64760;53.404;23.498;2023-05-14T10:02:23;6.30;;;4.10;;
73593;SDS011;64760;53.404;23.498;2023-05-14T10:04:51;7.65;;;3.90;;
73593;SDS011;64760;53.404;23.498;2023-05-14T10:07:26;6.03;;;3.92;;
73593;SDS011;64760;53.404;23.498;2023-05-14T10:09:58;5.85;;;3.60;;
73593;SDS011;64760;53.404;23.498;2023-05-14T10:12:28;6.05;;;4.13;;
73593;SDS011;64760;53.404;23.498;2023-05-14T10:15:03;9.55;;;3.33;;
73593;SDS011;64760;53.404;23.498;2023-05-14T10:17:36;9.35;;;3.97;;
73593;SDS011;64760;53.404;23.498;2023-05-14T10:20:07;6.10;;;3.63;;
73593;SDS011;64760;53.404;23.498;2023-05-14T10:22:40;7.40;;;3.53;;
73593;SDS011;64760;53.404;23.498;2023-05-14T10:25:06;6.13;;;3.85;;
73593;SDS011;64760;53.404;23.498;2023-05-14T10:27:33;14.55;;;10.13;;
73593;SDS011;64760;53.404;23.498;2023-05-14T10:30:00;6.75;;;3.72;;
73593;SDS011;64760;53.404;23.498;2023-05-14T10:32:35;6.35;;;3.88;;
73593;SDS011;64760;53.404;23.498;2023-05-14T10:35:06;6.90;;;3.70;;
73593;SDS011;64760;53.404;23.498;2023-05-14T10:37:45;7.70;;;4.32;;
73593;SDS011;64760;53.404;23.498;2023-05-14T10:40:12;8.20;;;3.65;;
73593;SDS011;64760;53.404;23.498;2023-05-14T10:42:39;8.07;;;3.72;;
73593;SDS011;64760;53.404;23.498;2023-05-14T10:45:07;6.30;;;4.25;;
73593;SDS011;64760;53.404;23.498;2023-05-14T10:47:36;8.00;;;3.75;;
73593;SDS011;64760;53.404;23.498;2023-05-14T10:50:05;7.32;;;3.83;;
73593;SDS011;64760;53.404;23.498;2023-05-14T10:52:33;6.85;;;3.72;;
73593;SDS011;64760;53.404;23.498;2023-05-14T10:55:00;7.60;;;3.08;;
73593;SDS011;64760;53.404;23.498;2023-05-14T10:57:30;5.68;;;3.25;;
73593;SDS011;64760;53.404;23.498;2023-05-14T10:59:58;6.82;;;4.00;;
73593;SDS011;64760;53.404;23.498;2023-05-14T11:02:27;6.88;;;4.45;;
73593;SDS011;64760;53.404;23.498;2023-05-14T11:05:04;5.95;;;3.45;;
73593;SDS011;64760;53.404;23.498;2023-05-14T11:07:38;5.50;;;3.65;;
73593;SDS011;64760;53.404;23.498;2023-05-14T11:10:14;6.80;;;3.42;;
73593;SDS011;64760;53.404;23.498;2023-05-14T11:12:43;11.80;;;8.13;;
73593;SDS011;64760;53.404;23.498;2023-05-14T11:15:17;7.18;;;4.18;;
73593;SDS011;64760;53.404;23.498;2023-05-14T11:17:46;5.53;;;3.15;;
73593;SDS011;64760;53.404;23.498;2023-05-14T11:20:14;6.47;;;3.35;;
73593;SDS011;64760;53.404;23.498;2023-05-14T11:22:42;5.72;;;4.30;;
73593;SDS011;64760;53.404;23.498;2023-05-14T11:25:09;6.93;;;3.70;;
73593;SDS011;64760;53.404;23.498;2023-05-14T11:27:41;7.43;;;4.10;;
73593;SDS011;64760;53.404;23.498;2023-05-14T11:30:19;6.82;;;3.65;;
73593;SDS011;64760;53.404;23.498;2023-05-14T11:32:47;5.65;;;3.05;;
73593;SDS011;64760;53.404;23.498;2023-05-14T11:35:14;6.22;;;3.55;;
73593;SDS011;64760;53.404;23.498;2023-05-14T11:37:41;5.72;;;3.05;;
73593;SDS011;64760;53.404;23.498;2023-05-14T11:40:13;4.93;;;2.80;;
73593;SDS011;64760;53.404;23.498;2023-05-14T11:42:41;5.35;;;3.20;;
73593;SDS011;64760;53.404;23.498;2023-05-14T11:45:10;5.78;;;3.67;;
73593;SDS011;64760;53.404;23.498;2023-05-14T11:47:39;5.80;;;3.60;;
73593;SDS011;64760;53.404;23.498;2023-05-14T11:50:07;4.43;;;3.35;;
73593;SDS011;64760;53.404;23.498;2023-05-14T11:52:40;13.63;;;5.95;;
73593;SDS011;64760;53.404;23.498;2023-05-14T11:55:12;5.18;;;3.63;;
73593;SDS011;64760;53.404;23.498;2023-05-14T11:57:39;5.90;;;3.53;;
73593;SDS011;64760;53.404;23.498;2023-05-14T12:00:06;7.40;;;4.93;;
73593;SDS011;64760;53.404;23.498;2023-05-14T12:02:34;5.25;;;3.50;;
73593;SDS011;64760;53.404;23.498;2023-05-14T12:05:03;5.88;;;3.13;;
73593;SDS011;64760;53.404;23.498;2023-05-14T12:07:33;4.70;;;2.83;;
73593;SDS011;64760;53.404;23.498;2023-05-14T12:09:59;6.28;;;3.00;;
73593;SDS011;64760;53.404;23.498;2023-05-14T12:12:27;8.52;;;3.88;;
73593;SDS011;64760;53.404;23.498;2023-05-14T12:14:59;6.15;;;3.35;;
73593;SDS011;64760;53.404;23.498;2023-05-14T12:17:25;6.80;;;3.40;;
73593;SDS011;64760;53.404;23.498;2023-05-14T12:19:51;4.53;;;3.50;;
73593;SDS011;64760;53.404;23.498;2023-05-14T12:22:19;7.40;;;3.08;;
73593;SDS011;64760;53.404;23.498;2023-05-14T12:24:56;4.78;;;3.15;;
73593;SDS011;64760;53.404;23.498;2023-05-14T12:27:24;4.43;;;2.92;;
73593;SDS011;64760;53.404;23.498;2023-05-14T12:29:58;6.03;;;2.90;;
73593;SDS011;64760;53.404;23.498;2023-05-14T12:32:31;5.68;;;3.08;;
73593;SDS011;64760;53.404;23.498;2023-05-14T12:34:58;9.85;;;6.45;;
73593;SDS011;64760;53.404;23.498;2023-05-14T12:37:26;4.10;;;2.78;;
73593;SDS011;64760;53.404;23.498;2023-05-14T12:39:52;6.40;;;3.50;;
73593;SDS011;64760;53.404;23.498;2023-05-14T12:42:19;6.85;;;4.88;;
73593;SDS011;64760;53.404;23.498;2023-05-14T12:44:45;4.78;;;3.13;;
73593;SDS011;64760;53.404;23.498;2023-05-14T12:47:11;4.68;;;2.90;;
73593;SDS011;64760;53.404;23.498;2023-05-14T12:49:37;5.93;;;2.85;;
73593;SDS011;64760;53.404;23.498;2023-05-14T12:52:04;5.30;;;3.22;;
73593;SDS011;64760;53.404;23.498;2023-05-14T12:54:30;4.25;;;3.10;;
73593;SDS011;64760;53.404;23.498;2023-05-14T12:56:57;4.25;;;2.80;;
73593;SDS011;64760;53.404;23.498;2023-05-14T13:01:50;7.57;;;3.30;;
73593;SDS011;64760;53.404;23.498;2023-05-14T13:04:16;4.82;;;3.17;;
73593;SDS011;64760;53.404;23.498;2023-05-14T13:06:43;4.68;;;2.95;;
73593;SDS011;64760;53.404;23.498;2023-05-14T13:09:09;5.65;;;3.30;;
73593;SDS011;64760;53.404;23.498;2023-05-14T13:11:35;10.45;;;5.95;;
73593;SDS011;64760;53.404;23.498;2023-05-14T13:14:01;5.05;;;3.47;;
73593;SDS011;64760;53.404;23.498;2023-05-14T13:16:28;7.10;;;3.58;;
73593;SDS011;64760;53.404;23.498;2023-05-14T13:18:55;5.45;;;3.00;;
73593;SDS011;64760;53.404;23.498;2023-05-14T13:21:21;4.82;;;3.13;;
73593;SDS011;64760;53.404;23.498;2023-05-14T13:23:47;5.00;;;3.20;;
73593;SDS011;64760;53.404;23.498;2023-05-14T13:26:14;7.75;;;3.35;;
73593;SDS011;64760;53.404;23.498;2023-05-14T13:28:40;5.57;;;3.38;;
73593;SDS011;64760;53.404;23.498;2023-05-14T13:31:08;6.60;;;3.28;;
73593;SDS011;64760;53.404;23.498;2023-05-14T13:33:37;4.65;;;2.83;;
73593;SDS011;64760;53.404;23.498;2023-05-14T13:36:05;6.82;;;3.22;;
73593;SDS011;64760;53.404;23.498;2023-05-14T13:38:33;5.88;;;3.38;;
73593;SDS011;64760;53.404;23.498;2023-05-14T13:43:29;5.07;;;3.35;;
73593;SDS011;64760;53.404;23.498;2023-05-14T13:45:56;5.20;;;3.25;;
73593;SDS011;64760;53.404;23.498;2023-05-14T13:50:50;7.35;;;3.05;;
73593;SDS011;64760;53.404;23.498;2023-05-14T13:53:17;5.28;;;3.45;;
73593;SDS011;64760;53.404;23.498;2023-05-14T13:55:44;8.27;;;3.33;;
73593;SDS011;64760;53.404;23.498;2023-05-14T13:58:11;7.40;;;3.33;;
73593;SDS011;64760;53.404;23.498;2023-05-14T14:00:37;7.03;;;3.47;;
73593;SDS011;64760;53.404;23.498;2023-05-14T14:03:04;4.88;;;3.30;;
73593;SDS011;64760;53.404;23.498;2023-05-14T14:05:31;7.03;;;3.17;;
73593;SDS011;64760;53.404;23.498;2023-05-14T14:07:57;6.05;;;3.13;;
73593;SDS011;64760;53.404;23.498;2023-05-14T14:10:24;5.47;;;3.13;;
73593;SDS011;64760;53.404;23.498;2023-05-14T14:12:51;8.50;;;3.40;;
73593;SDS011;64760;53.404;23.498;2023-05-14T14:15:18;4.55;;;3.33;;
73593;SDS011;64760;53.404;23.498;2023-05-14T14:17:44;6.45;;;3.22;;
73593;SDS011;64760;53.404;23.498;2023-05-14T14:20:10;5.95;;;3.05;;
73593;SDS011;64760;53.404;23.498;2023-05-14T14:22:39;7.28;;;2.95;;
73593;SDS011;64760;53.404;23.498;2023-05-14T14:25:07;6.18;;;3.45;;
73593;SDS011;64760;53.404;23.498;2023-05-14T14:27:34;4.45;;;3.17;;
73593;SDS011;64760;53.404;23.498;2023-05-14T14:30:05;4.53;;;3.42;;
73593;SDS011;64760;53.404;23.498;2023-05-14T14:32:44;6.88;;;3.25;;
73593;SDS011;64760;53.404;23.498;2023-05-14T14:35:13;5.30;;;3.30;;
73593;SDS011;64760;53.404;23.498;2023-05-14T14:37:42;5.47;;;3.42;;
73593;SDS011;64760;53.404;23.498;2023-05-14T14:40:14;7.45;;;3.50;;
73593;SDS011;64760;53.404;23.498;2023-05-14T14:42:42;6.63;;;3.63;;
73593;SDS011;64760;53.404;23.498;2023-05-14T14:45:10;5.75;;;3.25;;
73593;SDS011;64760;53.404;23.498;2023-05-14T14:47:37;8.75;;;3.53;;